sensor_id;sensor_type;location;lat;lon;timestamp;P1;durP1;ratioP1;P2;durP2;ratioP2
33830;SDS011;20137;48.834;8.732;2024-03-02T00:02:11;21.08;;;10.77;;
33830;SDS011;20137;48.834;8.732;2024-03-02T00:04:37;18.13;;;10.50;;
33830;SDS011;20137;48.834;8.732;2024-03-02T00:07:03;16.90;;;9.82;;
33830;SDS011;20137;48.834;8.732;2024-03-02T00:09:29;17.65;;;9.48;;
33830;SDS011;20137;48.834;8.732;2024-03-02T00:11:55;15.23;;;9.52;;
33830;SDS011;20137;48.834;8.732;2024-03-02T00:14:21;15.10;;;9.68;;
33830;SDS011;20137;48.834;8.732;2024-03-02T00:16:49;15.57;;;8.82;;
33830;SDS011;20137;48.834;8.732;2024-03-02T00:19:16;16.63;;;9.75;;
33830;SDS011;20137;48.834;8.732;2024-03-02T00:21:42;13.68;;;8.82;;
33830;SDS011;20137;48.834;8.732;2024-03-02T00:24:18;15.48;;;9.18;;
33830;SDS011;20137;48.834;8.732;2024-03-02T00:26:58;15.07;;;9.25;;
33830;SDS011;20137;48.834;8.732;2024-03-02T00:29:24;19.40;;;9.75;;
33830;SDS011;20137;48.834;8.732;2024-03-02T00:31:50;15.93;;;9.77;;
33830;SDS011;20137;48.834;8.732;2024-03-02T00:34:17;16.42;;;9.40;;
33830;SDS011;20137;48.834;8.732;2024-03-02T00:36:42;15.15;;;8.95;;
33830;SDS011;20137;48.834;8.732;2024-03-02T00:39:08;15.60;;;9.05;;
33830;SDS011;20137;48.834;8.732;2024-03-02T00:41:40;13.15;;;8.10;;
33830;SDS011;20137;48.834;8.732;2024-03-02T00:44:09;14.35;;;8.23;;
33830;SDS011;20137;48.834;8.732;2024-03-02T00:46:41;15.35;;;8.70;;
33830;SDS011;20137;48.834;8.732;2024-03-02T00:49:21;14.73;;;8.93;;
33830;SDS011;20137;48.834;8.732;2024-03-02T00:51:48;14.00;;;8.90;;
33830;SDS011;20137;48.834;8.732;2024-03-02T00:54:22;17.15;;;9.20;;
33830;SDS011;20137;48.834;8.732;2024-03-02T00:56:50;17.02;;;9.30;;
33830;SDS011;20137;48.834;8.732;2024-03-02T00:59:20;14.60;;;9.35;;
33830;SDS011;20137;48.834;8.732;2024-03-02T01:01:47;19.38;;;9.25;;
33830;SDS011;20137;48.834;8.732;2024-03-02T01:04:14;13.48;;;8.48;;
33830;SDS011;20137;48.834;8.732;2024-03-02T01:06:39;15.30;;;9.13;;
33830;SDS011;20137;48.834;8.732;2024-03-02T01:09:05;15.65;;;8.77;;
33830;SDS011;20137;48.834;8.732;2024-03-02T01:11:31;15.93;;;9.95;;
33830;SDS011;20137;48.834;8.732;2024-03-02T01:13:57;15.93;;;9.30;;
33830;SDS011;20137;48.834;8.732;2024-03-02T01:16:22;13.95;;;9.20;;
33830;SDS011;20137;48.834;8.732;2024-03-02T01:18:48;14.40;;;8.98;;
33830;SDS011;20137;48.834;8.732;2024-03-02T01:21:14;16.52;;;9.93;;
33830;SDS011;20137;48.834;8.732;2024-03-02T01:23:39;16.65;;;9.65;;
33830;SDS011;20137;48.834;8.732;2024-03-02T01:26:05;17.38;;;9.65;;
33830;SDS011;20137;48.834;8.732;2024-03-02T01:28:31;14.32;;;9.18;;
33830;SDS011;20137;48.834;8.732;2024-03-02T01:30:57;15.63;;;9.00;;
33830;SDS011;20137;48.834;8.732;2024-03-02T01:33:22;16.30;;;9.77;;
33830;SDS011;20137;48.834;8.732;2024-03-02T01:35:48;16.33;;;9.00;;
33830;SDS011;20137;48.834;8.732;2024-03-02T01:38:15;17.23;;;10.80;;
33830;SDS011;20137;48.834;8.732;2024-03-02T01:40:41;18.85;;;10.63;;
33830;SDS011;20137;48.834;8.732;2024-03-02T01:43:09;18.00;;;10.70;;
33830;SDS011;20137;48.834;8.732;2024-03-02T01:45:35;17.48;;;10.80;;
33830;SDS011;20137;48.834;8.732;2024-03-02T01:48:02;19.30;;;11.18;;
33830;SDS011;20137;48.834;8.732;2024-03-02T01:50:29;19.13;;;10.75;;
33830;SDS011;20137;48.834;8.732;2024-03-02T01:52:57;19.30;;;10.90;;
33830;SDS011;20137;48.834;8.732;2024-03-02T01:55:23;17.35;;;9.98;;
33830;SDS011;20137;48.834;8.732;2024-03-02T01:57:49;16.10;;;9.93;;
33830;SDS011;20137;48.834;8.732;2024-03-02T02:00:22;18.33;;;10.07;;
33830;SDS011;20137;48.834;8.732;2024-03-02T02:02:49;18.35;;;10.82;;
33830;SDS011;20137;48.834;8.732;2024-03-02T02:05:15;16.88;;;10.00;;
33830;SDS011;20137;48.834;8.732;2024-03-02T02:07:41;16.30;;;10.10;;
33830;SDS011;20137;48.834;8.732;2024-03-02T02:10:08;17.73;;;10.40;;
33830;SDS011;20137;48.834;8.732;2024-03-02T02:12:34;18.83;;;10.40;;
33830;SDS011;20137;48.834;8.732;2024-03-02T02:15:00;18.35;;;10.00;;
33830;SDS011;20137;48.834;8.732;2024-03-02T02:17:26;17.60;;;9.77;;
33830;SDS011;20137;48.834;8.732;2024-03-02T02:19:51;17.23;;;10.65;;
33830;SDS011;20137;48.834;8.732;2024-03-02T02:22:17;16.73;;;10.05;;
33830;SDS011;20137;48.834;8.732;2024-03-02T02:24:43;17.00;;;9.80;;
33830;SDS011;20137;48.834;8.732;2024-03-02T02:27:09;19.15;;;10.43;;
33830;SDS011;20137;48.834;8.732;2024-03-02T02:29:35;18.48;;;10.38;;
33830;SDS011;20137;48.834;8.732;2024-03-02T02:32:01;20.73;;;11.40;;
33830;SDS011;20137;48.834;8.732;2024-03-02T02:34:27;20.25;;;10.43;;
33830;SDS011;20137;48.834;8.732;2024-03-02T02:36:53;17.02;;;10.32;;
33830;SDS011;20137;48.834;8.732;2024-03-02T02:39:19;19.45;;;10.20;;
33830;SDS011;20137;48.834;8.732;2024-03-02T02:41:47;18.70;;;10.57;;
33830;SDS011;20137;48.834;8.732;2024-03-02T02:44:13;19.25;;;10.75;;
33830;SDS011;20137;48.834;8.732;2024-03-02T02:46:39;18.42;;;10.30;;
33830;SDS011;20137;48.834;8.732;2024-03-02T02:49:05;16.90;;;10.25;;
33830;SDS011;20137;48.834;8.732;2024-03-02T02:51:31;20.90;;;10.55;;
33830;SDS011;20137;48.834;8.732;2024-03-02T02:53:57;20.55;;;10.05;;
33830;SDS011;20137;48.834;8.732;2024-03-02T02:56:23;18.70;;;9.70;;
33830;SDS011;20137;48.834;8.732;2024-03-02T02:58:48;17.70;;;9.65;;
33830;SDS011;20137;48.834;8.732;2024-03-02T03:01:17;15.15;;;9.40;;
33830;SDS011;20137;48.834;8.732;2024-03-02T03:03:43;17.27;;;10.25;;
33830;SDS011;20137;48.834;8.732;2024-03-02T03:06:09;16.38;;;9.48;;
33830;SDS011;20137;48.834;8.732;2024-03-02T03:08:35;17.15;;;9.20;;
33830;SDS011;20137;48.834;8.732;2024-03-02T03:11:01;14.20;;;9.00;;
33830;SDS011;20137;48.834;8.732;2024-03-02T03:13:27;15.10;;;9.00;;
33830;SDS011;20137;48.834;8.732;2024-03-02T03:15:53;17.33;;;8.95;;
33830;SDS011;20137;48.834;8.732;2024-03-02T03:18:18;15.15;;;9.45;;
33830;SDS011;20137;48.834;8.732;2024-03-02T03:20:44;14.40;;;8.55;;
33830;SDS011;20137;48.834;8.732;2024-03-02T03:23:10;15.23;;;8.27;;
33830;SDS011;20137;48.834;8.732;2024-03-02T03:25:40;16.67;;;9.55;;
33830;SDS011;20137;48.834;8.732;2024-03-02T03:28:06;16.58;;;9.48;;
33830;SDS011;20137;48.834;8.732;2024-03-02T03:30:32;15.57;;;8.45;;
33830;SDS011;20137;48.834;8.732;2024-03-02T03:32:57;16.08;;;9.07;;
33830;SDS011;20137;48.834;8.732;2024-03-02T03:35:23;16.00;;;8.68;;
33830;SDS011;20137;48.834;8.732;2024-03-02T03:37:48;12.75;;;8.25;;
33830;SDS011;20137;48.834;8.732;2024-03-02T03:40:14;13.15;;;8.55;;
33830;SDS011;20137;48.834;8.732;2024-03-02T03:42:40;14.80;;;8.38;;
33830;SDS011;20137;48.834;8.732;2024-03-02T03:45:05;15.98;;;8.70;;
33830;SDS011;20137;48.834;8.732;2024-03-02T03:47:32;14.40;;;7.97;;
33830;SDS011;20137;48.834;8.732;2024-03-02T03:49:58;16.40;;;9.40;;
33830;SDS011;20137;48.834;8.732;2024-03-02T03:52:23;17.27;;;9.27;;
33830;SDS011;20137;48.834;8.732;2024-03-02T03:54:49;16.40;;;8.95;;
33830;SDS011;20137;48.834;8.732;2024-03-02T03:57:15;16.52;;;9.57;;
33830;SDS011;20137;48.834;8.732;2024-03-02T03:59:41;16.67;;;9.10;;
33830;SDS011;20137;48.834;8.732;2024-03-02T04:02:07;17.90;;;10.27;;
33830;SDS011;20137;48.834;8.732;2024-03-02T04:04:34;16.73;;;9.57;;
33830;SDS011;20137;48.834;8.732;2024-03-02T04:07:00;18.38;;;10.18;;
33830;SDS011;20137;48.834;8.732;2024-03-02T04:09:26;15.80;;;9.45;;
33830;SDS011;20137;48.834;8.732;2024-03-02T04:11:52;16.60;;;10.05;;
33830;SDS011;20137;48.834;8.732;2024-03-02T04:14:20;14.25;;;9.23;;
33830;SDS011;20137;48.834;8.732;2024-03-02T04:16:46;16.00;;;9.57;;
33830;SDS011;20137;48.834;8.732;2024-03-02T04:19:11;19.20;;;10.15;;
33830;SDS011;20137;48.834;8.732;2024-03-02T04:21:37;16.90;;;10.48;;
33830;SDS011;20137;48.834;8.732;2024-03-02T04:24:03;20.00;;;10.18;;
33830;SDS011;20137;48.834;8.732;2024-03-02T04:26:28;19.40;;;10.80;;
33830;SDS011;20137;48.834;8.732;2024-03-02T04:28:54;15.63;;;9.50;;
33830;SDS011;20137;48.834;8.732;2024-03-02T04:31:20;20.05;;;10.85;;
33830;SDS011;20137;48.834;8.732;2024-03-02T04:33:46;17.60;;;10.02;;
33830;SDS011;20137;48.834;8.732;2024-03-02T04:36:11;19.25;;;10.50;;
33830;SDS011;20137;48.834;8.732;2024-03-02T04:38:38;17.45;;;10.80;;
33830;SDS011;20137;48.834;8.732;2024-03-02T04:41:06;18.23;;;10.55;;
33830;SDS011;20137;48.834;8.732;2024-03-02T04:43:32;19.67;;;10.98;;
33830;SDS011;20137;48.834;8.732;2024-03-02T04:45:59;19.08;;;11.05;;
33830;SDS011;20137;48.834;8.732;2024-03-02T04:48:25;16.38;;;9.63;;
33830;SDS011;20137;48.834;8.732;2024-03-02T04:50:51;20.60;;;10.43;;
33830;SDS011;20137;48.834;8.732;2024-03-02T04:53:16;17.98;;;10.75;;
33830;SDS011;20137;48.834;8.732;2024-03-02T04:55:42;18.65;;;11.02;;
33830;SDS011;20137;48.834;8.732;2024-03-02T04:58:08;19.15;;;10.98;;
33830;SDS011;20137;48.834;8.732;2024-03-02T05:00:34;21.08;;;10.57;;
33830;SDS011;20137;48.834;8.732;2024-03-02T05:02:59;17.38;;;9.98;;
33830;SDS011;20137;48.834;8.732;2024-03-02T05:05:25;19.33;;;9.85;;
33830;SDS011;20137;48.834;8.732;2024-03-02T05:07:51;18.77;;;10.02;;
33830;SDS011;20137;48.834;8.732;2024-03-02T05:10:17;20.10;;;10.32;;
33830;SDS011;20137;48.834;8.732;2024-03-02T05:12:42;17.15;;;9.25;;
33830;SDS011;20137;48.834;8.732;2024-03-02T05:15:08;19.30;;;10.60;;
33830;SDS011;20137;48.834;8.732;2024-03-02T05:17:44;18.23;;;10.00;;
33830;SDS011;20137;48.834;8.732;2024-03-02T05:20:09;17.95;;;11.00;;
33830;SDS011;20137;48.834;8.732;2024-03-02T05:22:36;18.65;;;10.75;;
33830;SDS011;20137;48.834;8.732;2024-03-02T05:25:02;20.13;;;11.00;;
33830;SDS011;20137;48.834;8.732;2024-03-02T05:27:29;19.90;;;10.80;;
33830;SDS011;20137;48.834;8.732;2024-03-02T05:29:55;18.27;;;10.32;;
33830;SDS011;20137;48.834;8.732;2024-03-02T05:32:21;18.60;;;10.18;;
33830;SDS011;20137;48.834;8.732;2024-03-02T05:34:47;19.85;;;10.65;;
33830;SDS011;20137;48.834;8.732;2024-03-02T05:37:12;19.55;;;10.52;;
33830;SDS011;20137;48.834;8.732;2024-03-02T05:39:38;16.33;;;9.88;;
33830;SDS011;20137;48.834;8.732;2024-03-02T05:42:03;15.65;;;9.50;;
33830;SDS011;20137;48.834;8.732;2024-03-02T05:44:29;17.00;;;8.73;;
33830;SDS011;20137;48.834;8.732;2024-03-02T05:46:55;16.13;;;8.82;;
33830;SDS011;20137;48.834;8.732;2024-03-02T05:49:21;15.13;;;8.32;;
33830;SDS011;20137;48.834;8.732;2024-03-02T05:51:47;12.27;;;7.45;;
33830;SDS011;20137;48.834;8.732;2024-03-02T05:54:12;16.23;;;8.32;;
33830;SDS011;20137;48.834;8.732;2024-03-02T05:56:38;14.23;;;8.40;;
33830;SDS011;20137;48.834;8.732;2024-03-02T05:59:04;16.63;;;8.95;;
33830;SDS011;20137;48.834;8.732;2024-03-02T06:01:41;14.90;;;8.15;;
33830;SDS011;20137;48.834;8.732;2024-03-02T06:04:08;16.35;;;8.75;;
33830;SDS011;20137;48.834;8.732;2024-03-02T06:06:35;15.60;;;8.60;;
33830;SDS011;20137;48.834;8.732;2024-03-02T06:09:01;20.02;;;9.52;;
33830;SDS011;20137;48.834;8.732;2024-03-02T06:11:32;14.30;;;8.35;;
33830;SDS011;20137;48.834;8.732;2024-03-02T06:14:04;16.25;;;9.05;;
33830;SDS011;20137;48.834;8.732;2024-03-02T06:16:33;14.25;;;7.47;;
33830;SDS011;20137;48.834;8.732;2024-03-02T06:18:58;15.68;;;9.00;;
33830;SDS011;20137;48.834;8.732;2024-03-02T06:21:24;15.43;;;8.45;;
33830;SDS011;20137;48.834;8.732;2024-03-02T06:23:50;14.95;;;8.82;;
33830;SDS011;20137;48.834;8.732;2024-03-02T06:26:16;15.32;;;8.10;;
33830;SDS011;20137;48.834;8.732;2024-03-02T06:28:42;14.75;;;7.75;;
33830;SDS011;20137;48.834;8.732;2024-03-02T06:31:08;16.35;;;8.27;;
33830;SDS011;20137;48.834;8.732;2024-03-02T06:33:34;13.77;;;8.27;;
33830;SDS011;20137;48.834;8.732;2024-03-02T06:35:59;12.30;;;7.68;;
33830;SDS011;20137;48.834;8.732;2024-03-02T06:38:25;13.73;;;8.02;;
33830;SDS011;20137;48.834;8.732;2024-03-02T06:40:51;13.25;;;6.97;;
33830;SDS011;20137;48.834;8.732;2024-03-02T06:43:16;13.77;;;7.45;;
33830;SDS011;20137;48.834;8.732;2024-03-02T06:45:42;12.82;;;6.93;;
33830;SDS011;20137;48.834;8.732;2024-03-02T06:48:08;10.68;;;6.53;;
33830;SDS011;20137;48.834;8.732;2024-03-02T06:50:33;12.20;;;6.80;;
33830;SDS011;20137;48.834;8.732;2024-03-02T06:52:59;11.20;;;6.57;;
33830;SDS011;20137;48.834;8.732;2024-03-02T06:55:25;11.63;;;6.68;;
33830;SDS011;20137;48.834;8.732;2024-03-02T06:57:51;12.10;;;6.68;;
33830;SDS011;20137;48.834;8.732;2024-03-02T07:00:19;11.77;;;6.82;;
33830;SDS011;20137;48.834;8.732;2024-03-02T07:02:45;10.57;;;5.90;;
33830;SDS011;20137;48.834;8.732;2024-03-02T07:05:11;10.55;;;6.05;;
33830;SDS011;20137;48.834;8.732;2024-03-02T07:07:37;10.93;;;5.93;;
33830;SDS011;20137;48.834;8.732;2024-03-02T07:10:03;12.38;;;6.32;;
33830;SDS011;20137;48.834;8.732;2024-03-02T07:12:29;11.70;;;6.05;;
33830;SDS011;20137;48.834;8.732;2024-03-02T07:14:56;10.50;;;5.93;;
33830;SDS011;20137;48.834;8.732;2024-03-02T07:17:36;10.55;;;6.70;;
33830;SDS011;20137;48.834;8.732;2024-03-02T07:20:02;10.75;;;6.28;;
33830;SDS011;20137;48.834;8.732;2024-03-02T07:22:31;11.27;;;6.40;;
33830;SDS011;20137;48.834;8.732;2024-03-02T07:24:58;11.18;;;6.22;;
33830;SDS011;20137;48.834;8.732;2024-03-02T07:27:23;11.13;;;6.88;;
33830;SDS011;20137;48.834;8.732;2024-03-02T07:29:49;10.82;;;6.25;;
33830;SDS011;20137;48.834;8.732;2024-03-02T07:32:15;11.02;;;6.70;;
33830;SDS011;20137;48.834;8.732;2024-03-02T07:34:40;10.95;;;6.53;;
33830;SDS011;20137;48.834;8.732;2024-03-02T07:37:06;12.40;;;6.55;;
33830;SDS011;20137;48.834;8.732;2024-03-02T07:39:32;10.82;;;6.68;;
33830;SDS011;20137;48.834;8.732;2024-03-02T07:41:57;12.50;;;7.50;;
33830;SDS011;20137;48.834;8.732;2024-03-02T07:44:24;13.73;;;7.78;;
33830;SDS011;20137;48.834;8.732;2024-03-02T07:46:50;12.93;;;7.40;;
33830;SDS011;20137;48.834;8.732;2024-03-02T07:49:16;10.90;;;6.57;;
33830;SDS011;20137;48.834;8.732;2024-03-02T07:51:42;11.13;;;6.68;;
33830;SDS011;20137;48.834;8.732;2024-03-02T07:54:08;11.93;;;6.82;;
33830;SDS011;20137;48.834;8.732;2024-03-02T07:56:34;11.45;;;6.40;;
33830;SDS011;20137;48.834;8.732;2024-03-02T07:59:00;10.40;;;6.22;;
33830;SDS011;20137;48.834;8.732;2024-03-02T08:01:27;11.20;;;6.10;;
33830;SDS011;20137;48.834;8.732;2024-03-02T08:03:55;10.38;;;6.20;;
33830;SDS011;20137;48.834;8.732;2024-03-02T08:06:23;10.07;;;6.10;;
33830;SDS011;20137;48.834;8.732;2024-03-02T08:08:58;12.00;;;5.97;;
33830;SDS011;20137;48.834;8.732;2024-03-02T08:11:25;15.15;;;6.32;;
33830;SDS011;20137;48.834;8.732;2024-03-02T08:13:52;9.70;;;5.85;;
33830;SDS011;20137;48.834;8.732;2024-03-02T08:16:19;7.75;;;5.25;;
33830;SDS011;20137;48.834;8.732;2024-03-02T08:18:47;7.32;;;4.93;;
33830;SDS011;20137;48.834;8.732;2024-03-02T08:21:13;7.75;;;5.18;;
33830;SDS011;20137;48.834;8.732;2024-03-02T08:23:39;8.80;;;5.43;;
33830;SDS011;20137;48.834;8.732;2024-03-02T08:26:07;7.68;;;4.78;;
33830;SDS011;20137;48.834;8.732;2024-03-02T08:28:33;9.95;;;5.20;;
33830;SDS011;20137;48.834;8.732;2024-03-02T08:30:59;8.23;;;4.47;;
33830;SDS011;20137;48.834;8.732;2024-03-02T08:33:25;7.25;;;5.03;;
33830;SDS011;20137;48.834;8.732;2024-03-02T08:35:50;7.82;;;4.85;;
33830;SDS011;20137;48.834;8.732;2024-03-02T08:38:16;8.05;;;4.75;;
33830;SDS011;20137;48.834;8.732;2024-03-02T08:40:42;6.55;;;3.67;;
33830;SDS011;20137;48.834;8.732;2024-03-02T08:43:08;6.30;;;3.58;;
33830;SDS011;20137;48.834;8.732;2024-03-02T08:45:34;4.68;;;3.10;;
33830;SDS011;20137;48.834;8.732;2024-03-02T08:48:00;6.32;;;3.08;;
33830;SDS011;20137;48.834;8.732;2024-03-02T08:50:25;5.03;;;3.38;;
33830;SDS011;20137;48.834;8.732;2024-03-02T08:52:51;6.85;;;3.83;;
33830;SDS011;20137;48.834;8.732;2024-03-02T08:55:17;6.53;;;3.75;;
33830;SDS011;20137;48.834;8.732;2024-03-02T08:57:43;5.00;;;3.17;;
33830;SDS011;20137;48.834;8.732;2024-03-02T09:00:09;5.85;;;3.70;;
33830;SDS011;20137;48.834;8.732;2024-03-02T09:02:35;6.25;;;3.97;;
33830;SDS011;20137;48.834;8.732;2024-03-02T09:05:01;5.15;;;3.60;;
33830;SDS011;20137;48.834;8.732;2024-03-02T09:07:27;6.00;;;3.75;;
33830;SDS011;20137;48.834;8.732;2024-03-02T09:09:53;8.57;;;4.88;;
33830;SDS011;20137;48.834;8.732;2024-03-02T09:12:19;7.55;;;4.43;;
33830;SDS011;20137;48.834;8.732;2024-03-02T09:14:45;9.00;;;5.35;;
33830;SDS011;20137;48.834;8.732;2024-03-02T09:17:11;9.40;;;4.85;;
33830;SDS011;20137;48.834;8.732;2024-03-02T09:19:37;6.93;;;4.75;;
33830;SDS011;20137;48.834;8.732;2024-03-02T09:22:04;6.10;;;4.03;;
33830;SDS011;20137;48.834;8.732;2024-03-02T09:24:30;5.78;;;3.83;;
33830;SDS011;20137;48.834;8.732;2024-03-02T09:26:58;9.15;;;5.47;;
33830;SDS011;20137;48.834;8.732;2024-03-02T09:29:24;5.97;;;4.15;;
33830;SDS011;20137;48.834;8.732;2024-03-02T09:31:49;7.90;;;4.82;;
33830;SDS011;20137;48.834;8.732;2024-03-02T09:34:16;6.03;;;4.00;;
33830;SDS011;20137;48.834;8.732;2024-03-02T09:36:42;7.70;;;4.45;;
33830;SDS011;20137;48.834;8.732;2024-03-02T09:39:08;5.00;;;3.92;;
33830;SDS011;20137;48.834;8.732;2024-03-02T09:41:37;7.97;;;4.05;;
33830;SDS011;20137;48.834;8.732;2024-03-02T09:44:03;6.70;;;4.00;;
33830;SDS011;20137;48.834;8.732;2024-03-02T09:46:29;6.50;;;3.85;;
33830;SDS011;20137;48.834;8.732;2024-03-02T09:48:55;6.65;;;4.03;;
33830;SDS011;20137;48.834;8.732;2024-03-02T09:51:21;6.03;;;3.88;;
33830;SDS011;20137;48.834;8.732;2024-03-02T09:53:47;7.55;;;4.03;;
33830;SDS011;20137;48.834;8.732;2024-03-02T09:56:13;7.63;;;3.28;;
33830;SDS011;20137;48.834;8.732;2024-03-02T09:58:40;5.65;;;3.63;;
33830;SDS011;20137;48.834;8.732;2024-03-02T10:01:06;5.78;;;4.38;;
33830;SDS011;20137;48.834;8.732;2024-03-02T10:03:33;6.78;;;3.92;;
33830;SDS011;20137;48.834;8.732;2024-03-02T10:08:44;9.15;;;3.47;;
33830;SDS011;20137;48.834;8.732;2024-03-02T10:11:10;4.95;;;3.05;;
33830;SDS011;20137;48.834;8.732;2024-03-02T10:13:36;5.40;;;3.58;;
33830;SDS011;20137;48.834;8.732;2024-03-02T10:16:11;5.28;;;3.00;;
33830;SDS011;20137;48.834;8.732;2024-03-02T10:18:37;4.70;;;2.50;;
33830;SDS011;20137;48.834;8.732;2024-03-02T10:21:15;5.45;;;3.20;;
33830;SDS011;20137;48.834;8.732;2024-03-02T10:23:40;6.72;;;2.72;;
33830;SDS011;20137;48.834;8.732;2024-03-02T10:26:18;5.30;;;3.15;;
33830;SDS011;20137;48.834;8.732;2024-03-02T10:28:47;6.05;;;3.05;;
33830;SDS011;20137;48.834;8.732;2024-03-02T10:31:13;6.53;;;3.20;;
33830;SDS011;20137;48.834;8.732;2024-03-02T10:33:39;4.13;;;2.55;;
33830;SDS011;20137;48.834;8.732;2024-03-02T10:36:05;5.43;;;2.70;;
33830;SDS011;20137;48.834;8.732;2024-03-02T10:38:31;2.95;;;2.22;;
33830;SDS011;20137;48.834;8.732;2024-03-02T10:40:57;3.60;;;2.00;;
33830;SDS011;20137;48.834;8.732;2024-03-02T10:43:24;2.97;;;1.70;;
33830;SDS011;20137;48.834;8.732;2024-03-02T10:45:51;2.60;;;1.40;;
33830;SDS011;20137;48.834;8.732;2024-03-02T10:48:18;2.60;;;1.40;;
33830;SDS011;20137;48.834;8.732;2024-03-02T10:50:44;2.00;;;0.95;;
33830;SDS011;20137;48.834;8.732;2024-03-02T10:53:10;1.98;;;1.45;;
33830;SDS011;20137;48.834;8.732;2024-03-02T10:55:36;2.95;;;1.50;;
33830;SDS011;20137;48.834;8.732;2024-03-02T10:58:01;1.70;;;1.00;;
33830;SDS011;20137;48.834;8.732;2024-03-02T11:00:33;1.88;;;1.15;;
33830;SDS011;20137;48.834;8.732;2024-03-02T11:03:08;5.05;;;3.42;;
33830;SDS011;20137;48.834;8.732;2024-03-02T11:05:36;2.30;;;1.42;;
33830;SDS011;20137;48.834;8.732;2024-03-02T11:08:06;4.70;;;2.10;;
33830;SDS011;20137;48.834;8.732;2024-03-02T11:10:37;2.42;;;1.23;;
33830;SDS011;20137;48.834;8.732;2024-03-02T11:13:16;1.58;;;1.00;;
33830;SDS011;20137;48.834;8.732;2024-03-02T11:15:53;3.25;;;1.40;;
33830;SDS011;20137;48.834;8.732;2024-03-02T11:18:24;5.43;;;2.17;;
33830;SDS011;20137;48.834;8.732;2024-03-02T11:20:50;2.80;;;1.38;;
33830;SDS011;20137;48.834;8.732;2024-03-02T11:23:16;1.80;;;1.23;;
33830;SDS011;20137;48.834;8.732;2024-03-02T11:25:42;1.63;;;1.10;;
33830;SDS011;20137;48.834;8.732;2024-03-02T11:28:08;2.08;;;1.65;;
33830;SDS011;20137;48.834;8.732;2024-03-02T11:33:05;2.05;;;1.33;;
33830;SDS011;20137;48.834;8.732;2024-03-02T11:35:37;3.30;;;2.25;;
33830;SDS011;20137;48.834;8.732;2024-03-02T11:38:07;3.10;;;2.80;;
33830;SDS011;20137;48.834;8.732;2024-03-02T11:40:34;2.75;;;1.52;;
33830;SDS011;20137;48.834;8.732;2024-03-02T11:43:01;5.57;;;1.88;;
33830;SDS011;20137;48.834;8.732;2024-03-02T11:45:27;2.45;;;1.58;;
33830;SDS011;20137;48.834;8.732;2024-03-02T11:47:54;1.60;;;1.20;;
33830;SDS011;20137;48.834;8.732;2024-03-02T11:50:31;3.35;;;2.00;;
33830;SDS011;20137;48.834;8.732;2024-03-02T11:53:06;1.77;;;1.50;;
33830;SDS011;20137;48.834;8.732;2024-03-02T11:55:34;4.13;;;2.03;;
33830;SDS011;20137;48.834;8.732;2024-03-02T11:58:02;3.50;;;2.10;;
33830;SDS011;20137;48.834;8.732;2024-03-02T12:00:29;3.00;;;1.73;;
33830;SDS011;20137;48.834;8.732;2024-03-02T12:03:04;4.78;;;1.80;;
33830;SDS011;20137;48.834;8.732;2024-03-02T12:05:37;3.05;;;1.42;;
33830;SDS011;20137;48.834;8.732;2024-03-02T12:08:04;3.22;;;2.00;;
33830;SDS011;20137;48.834;8.732;2024-03-02T12:10:31;3.33;;;2.20;;
33830;SDS011;20137;48.834;8.732;2024-03-02T12:13:01;3.40;;;2.13;;
33830;SDS011;20137;48.834;8.732;2024-03-02T12:15:33;3.63;;;1.90;;
33830;SDS011;20137;48.834;8.732;2024-03-02T12:18:00;3.42;;;1.92;;
33830;SDS011;20137;48.834;8.732;2024-03-02T12:20:27;3.33;;;1.90;;
33830;SDS011;20137;48.834;8.732;2024-03-02T12:22:54;2.17;;;1.63;;
33830;SDS011;20137;48.834;8.732;2024-03-02T12:25:22;2.30;;;1.63;;
33830;SDS011;20137;48.834;8.732;2024-03-02T12:27:50;2.58;;;1.25;;
33830;SDS011;20137;48.834;8.732;2024-03-02T12:30:18;3.22;;;1.70;;
33830;SDS011;20137;48.834;8.732;2024-03-02T12:32:45;2.55;;;1.60;;
33830;SDS011;20137;48.834;8.732;2024-03-02T12:35:11;3.03;;;1.80;;
33830;SDS011;20137;48.834;8.732;2024-03-02T12:37:47;2.88;;;2.10;;
33830;SDS011;20137;48.834;8.732;2024-03-02T12:40:14;2.83;;;2.00;;
33830;SDS011;20137;48.834;8.732;2024-03-02T12:42:43;2.60;;;2.13;;
33830;SDS011;20137;48.834;8.732;2024-03-02T12:45:09;4.75;;;2.40;;
33830;SDS011;20137;48.834;8.732;2024-03-02T12:47:35;2.92;;;2.00;;
33830;SDS011;20137;48.834;8.732;2024-03-02T12:50:02;4.03;;;2.45;;
33830;SDS011;20137;48.834;8.732;2024-03-02T12:52:31;4.70;;;3.05;;
33830;SDS011;20137;48.834;8.732;2024-03-02T12:54:58;8.57;;;5.28;;
33830;SDS011;20137;48.834;8.732;2024-03-02T12:57:25;4.38;;;2.92;;
33830;SDS011;20137;48.834;8.732;2024-03-02T12:59:58;5.13;;;2.65;;
33830;SDS011;20137;48.834;8.732;2024-03-02T13:02:27;3.55;;;2.38;;
33830;SDS011;20137;48.834;8.732;2024-03-02T13:04:53;4.43;;;3.63;;
33830;SDS011;20137;48.834;8.732;2024-03-02T13:07:19;3.78;;;2.33;;
33830;SDS011;20137;48.834;8.732;2024-03-02T13:09:47;2.90;;;1.83;;
33830;SDS011;20137;48.834;8.732;2024-03-02T13:12:15;5.82;;;4.72;;
33830;SDS011;20137;48.834;8.732;2024-03-02T13:14:41;6.25;;;3.50;;
33830;SDS011;20137;48.834;8.732;2024-03-02T13:17:10;4.57;;;1.90;;
33830;SDS011;20137;48.834;8.732;2024-03-02T13:19:39;3.08;;;2.00;;
33830;SDS011;20137;48.834;8.732;2024-03-02T13:22:15;2.45;;;1.60;;
33830;SDS011;20137;48.834;8.732;2024-03-02T13:24:41;2.38;;;1.98;;
33830;SDS011;20137;48.834;8.732;2024-03-02T13:27:07;2.20;;;1.42;;
33830;SDS011;20137;48.834;8.732;2024-03-02T13:29:33;3.03;;;1.70;;
33830;SDS011;20137;48.834;8.732;2024-03-02T13:31:59;3.05;;;1.67;;
33830;SDS011;20137;48.834;8.732;2024-03-02T13:34:24;4.75;;;1.98;;
33830;SDS011;20137;48.834;8.732;2024-03-02T13:36:50;1.55;;;1.25;;
33830;SDS011;20137;48.834;8.732;2024-03-02T13:39:16;2.45;;;1.30;;
33830;SDS011;20137;48.834;8.732;2024-03-02T13:41:41;3.30;;;1.20;;
33830;SDS011;20137;48.834;8.732;2024-03-02T13:44:09;3.78;;;1.70;;
33830;SDS011;20137;48.834;8.732;2024-03-02T13:46:35;2.00;;;1.38;;
33830;SDS011;20137;48.834;8.732;2024-03-02T13:49:00;3.13;;;1.60;;
33830;SDS011;20137;48.834;8.732;2024-03-02T13:51:26;2.38;;;1.40;;
33830;SDS011;20137;48.834;8.732;2024-03-02T13:53:52;3.28;;;1.92;;
33830;SDS011;20137;48.834;8.732;2024-03-02T13:56:18;1.85;;;1.50;;
33830;SDS011;20137;48.834;8.732;2024-03-02T13:58:43;3.13;;;2.47;;
33830;SDS011;20137;48.834;8.732;2024-03-02T14:01:11;2.78;;;1.80;;
33830;SDS011;20137;48.834;8.732;2024-03-02T14:03:37;3.63;;;1.77;;
33830;SDS011;20137;48.834;8.732;2024-03-02T14:06:02;2.85;;;1.50;;
33830;SDS011;20137;48.834;8.732;2024-03-02T14:08:28;2.63;;;1.48;;
33830;SDS011;20137;48.834;8.732;2024-03-02T14:10:54;3.53;;;1.30;;
33830;SDS011;20137;48.834;8.732;2024-03-02T14:13:23;3.20;;;1.55;;
33830;SDS011;20137;48.834;8.732;2024-03-02T14:15:49;3.55;;;1.73;;
33830;SDS011;20137;48.834;8.732;2024-03-02T14:18:14;2.80;;;2.10;;
33830;SDS011;20137;48.834;8.732;2024-03-02T14:20:40;3.63;;;2.40;;
33830;SDS011;20137;48.834;8.732;2024-03-02T14:23:07;3.35;;;2.70;;
33830;SDS011;20137;48.834;8.732;2024-03-02T14:25:35;2.55;;;1.75;;
33830;SDS011;20137;48.834;8.732;2024-03-02T14:28:00;3.30;;;1.70;;
33830;SDS011;20137;48.834;8.732;2024-03-02T14:30:26;3.22;;;1.60;;
33830;SDS011;20137;48.834;8.732;2024-03-02T14:32:52;4.38;;;1.67;;
33830;SDS011;20137;48.834;8.732;2024-03-02T14:35:17;4.55;;;2.47;;
33830;SDS011;20137;48.834;8.732;2024-03-02T14:37:43;3.60;;;1.73;;
33830;SDS011;20137;48.834;8.732;2024-03-02T14:40:09;3.72;;;2.20;;
33830;SDS011;20137;48.834;8.732;2024-03-02T14:42:36;3.25;;;2.10;;